createdAt,value
2022-10-13T00:00:07.964Z,5.24
2022-10-13T00:03:04.211Z,5.19
2022-10-13T00:05:36.883Z,5.13
2022-10-13T00:08:08.996Z,5.04
2022-10-13T00:10:48.685Z,4.95
2022-10-13T00:13:22.513Z,4.86
2022-10-13T00:15:54.598Z,4.80
2022-10-13T00:18:27.999Z,4.78
2022-10-13T00:21:00.468Z,4.76
2022-10-13T00:23:34.449Z,4.71
2022-10-13T00:26:09.020Z,4.68
2022-10-13T00:28:41.654Z,4.68
2022-10-13T00:31:21.893Z,4.64
2022-10-13T00:33:54.282Z,4.61
2022-10-13T00:36:27.345Z,4.57
2022-10-13T00:38:59.687Z,4.55
2022-10-13T00:41:31.959Z,4.51
2022-10-13T00:44:06.135Z,4.45
2022-10-13T00:46:39.042Z,4.41
2022-10-13T00:49:14.284Z,4.38
2022-10-13T00:51:52.117Z,4.34
2022-10-13T00:54:27.132Z,4.31
2022-10-13T00:56:59.675Z,4.26
2022-10-13T00:59:31.938Z,4.19
2022-10-13T01:02:03.548Z,4.13
2022-10-13T01:04:38.492Z,4.08
2022-10-13T01:07:11.553Z,4.05
2022-10-13T01:09:43.498Z,4.06
2022-10-13T01:12:22.444Z,4.05
2022-10-13T01:15:02.722Z,4.08
2022-10-13T01:17:44.528Z,4.06
2022-10-13T01:20:38.454Z,4.05
2022-10-13T01:23:31.655Z,4.03
2022-10-13T01:26:25.174Z,4.02
2022-10-13T01:29:23.958Z,4.02
2022-10-13T01:32:07.847Z,3.99
2022-10-13T01:34:51.517Z,3.96
2022-10-13T01:37:29.439Z,3.94
2022-10-13T01:40:11.362Z,3.93
2022-10-13T01:42:50.516Z,3.90
2022-10-13T01:45:26.771Z,3.87
2022-10-13T01:48:00.637Z,3.86
2022-10-13T01:50:33.763Z,3.85
2022-10-13T01:53:08.598Z,3.84
2022-10-13T01:55:52.013Z,3.84
2022-10-13T01:58:24.931Z,3.84
2022-10-13T02:01:13.409Z,3.83
2022-10-13T02:03:53.876Z,3.83
2022-10-13T02:06:31.889Z,3.83
2022-10-13T02:09:07.472Z,3.84
2022-10-13T02:11:46.408Z,3.83
2022-10-13T02:14:23.540Z,3.83
2022-10-13T02:16:57.262Z,3.85
2022-10-13T02:19:31.076Z,3.89
2022-10-13T02:22:04.311Z,3.89
2022-10-13T02:24:37.157Z,3.89
2022-10-13T02:27:09.509Z,3.93
2022-10-13T02:29:53.780Z,3.97
2022-10-13T02:32:26.433Z,4.00
2022-10-13T02:34:58.467Z,3.99
2022-10-13T02:37:29.202Z,4.00
2022-10-13T02:40:01.781Z,4.00
2022-10-13T02:42:33.724Z,3.98
2022-10-13T02:45:07.629Z,3.96
2022-10-13T02:47:39.576Z,3.92
2022-10-13T02:50:12.433Z,3.91
2022-10-13T02:52:44.574Z,3.90
2022-10-13T02:55:15.160Z,3.87
2022-10-13T02:57:48.693Z,3.84
2022-10-13T03:00:20.764Z,3.82
2022-10-13T03:02:52.784Z,3.81
2022-10-13T03:05:25.031Z,3.79
2022-10-13T03:07:55.458Z,3.78
2022-10-13T03:10:28.159Z,3.75
2022-10-13T03:13:00.188Z,3.72
2022-10-13T03:15:31.972Z,3.70
2022-10-13T03:18:04.367Z,3.66
2022-10-13T03:20:36.497Z,3.64
2022-10-13T03:23:07.451Z,3.63
2022-10-13T03:25:39.432Z,3.63
2022-10-13T03:28:11.410Z,3.60
2022-10-13T03:30:45.500Z,3.58
2022-10-13T03:33:17.786Z,3.56
2022-10-13T03:35:49.652Z,3.52
2022-10-13T03:38:21.527Z,3.51
2022-10-13T03:40:53.540Z,3.51
2022-10-13T03:43:25.922Z,3.50
2022-10-13T03:46:02.598Z,3.49
2022-10-13T03:48:36.066Z,3.50
2022-10-13T03:51:10.536Z,3.51
2022-10-13T03:53:44.661Z,3.53
2022-10-13T03:56:18.697Z,3.54
2022-10-13T03:58:59.248Z,3.57
2022-10-13T04:01:32.577Z,3.60
2022-10-13T04:04:04.795Z,3.60
2022-10-13T04:06:36.649Z,3.62
2022-10-13T04:09:09.674Z,3.65
2022-10-13T04:11:41.730Z,3.69
2022-10-13T04:14:13.685Z,3.70
2022-10-13T04:16:45.802Z,3.69
2022-10-13T04:19:18.147Z,3.66
2022-10-13T04:21:50.534Z,3.64
2022-10-13T04:24:22.505Z,3.65
2022-10-13T04:26:54.457Z,3.64
2022-10-13T04:29:26.612Z,3.68
2022-10-13T04:31:57.318Z,3.69
2022-10-13T04:34:29.155Z,3.67
2022-10-13T04:37:01.347Z,3.65
2022-10-13T04:39:33.598Z,3.66
2022-10-13T04:42:04.200Z,3.67
2022-10-13T04:44:36.151Z,3.66
2022-10-13T04:47:07.312Z,3.65
2022-10-13T04:49:39.475Z,3.59
2022-10-13T04:52:11.569Z,3.55
2022-10-13T04:54:44.480Z,3.53
2022-10-13T04:57:16.496Z,3.50
2022-10-13T04:59:48.723Z,3.49
2022-10-13T05:02:19.108Z,3.47
2022-10-13T05:04:51.605Z,3.42
2022-10-13T05:07:24.281Z,3.42
2022-10-13T05:09:56.893Z,3.41
2022-10-13T05:12:28.848Z,3.41
2022-10-13T05:15:01.268Z,3.43
2022-10-13T05:17:35.486Z,3.44
2022-10-13T05:20:13.188Z,3.46
2022-10-13T05:22:45.549Z,3.49
2022-10-13T05:25:16.078Z,3.52
2022-10-13T05:27:48.192Z,3.53
2022-10-13T05:30:18.971Z,3.52
2022-10-13T05:32:53.865Z,3.53
2022-10-13T05:35:27.825Z,3.54
2022-10-13T05:38:00.001Z,3.56
2022-10-13T05:40:33.646Z,3.61
2022-10-13T05:43:06.360Z,3.65
2022-10-13T05:45:36.930Z,3.67
2022-10-13T05:48:09.404Z,3.70
2022-10-13T05:50:41.646Z,3.74
2022-10-13T05:53:14.326Z,3.80
2022-10-13T05:55:46.660Z,3.85
2022-10-13T05:58:20.302Z,3.94
2022-10-13T06:00:55.271Z,4.05
2022-10-13T06:03:28.879Z,4.18
2022-10-13T06:06:01.002Z,4.33
2022-10-13T06:08:33.111Z,4.55
2022-10-13T06:11:06.220Z,4.87
2022-10-13T06:13:38.348Z,5.28
2022-10-13T06:16:10.586Z,5.69
2022-10-13T06:18:41.143Z,6.15
2022-10-13T06:21:13.562Z,6.56
2022-10-13T06:23:45.487Z,6.94
2022-10-13T06:26:17.750Z,7.33
2022-10-13T06:28:51.042Z,7.67
2022-10-13T06:31:27.850Z,8.02
2022-10-13T06:34:00.504Z,8.40
2022-10-13T06:36:32.564Z,8.76
2022-10-13T06:39:04.852Z,9.06
2022-10-13T06:41:37.251Z,9.35
2022-10-13T06:44:09.416Z,9.68
2022-10-13T06:46:41.876Z,9.92
2022-10-13T06:49:13.860Z,10.16
2022-10-13T06:51:46.440Z,10.42
2022-10-13T06:54:19.196Z,10.61
2022-10-13T06:56:52.008Z,10.86
2022-10-13T06:59:23.929Z,11.09
2022-10-13T07:01:56.022Z,11.36
2022-10-13T07:04:28.721Z,11.59
2022-10-13T07:07:03.066Z,11.84
2022-10-13T07:09:35.338Z,12.13
2022-10-13T07:12:09.022Z,12.39
2022-10-13T07:14:43.719Z,12.63
2022-10-13T07:17:16.052Z,12.91
2022-10-13T07:19:48.627Z,13.13
2022-10-13T07:22:20.766Z,13.31
2022-10-13T07:24:52.875Z,13.60
2022-10-13T07:27:27.184Z,13.90
2022-10-13T07:29:59.416Z,14.16
2022-10-13T07:32:32.104Z,14.35
2022-10-13T07:35:05.282Z,14.58
2022-10-13T07:37:37.778Z,14.81
2022-10-13T07:40:12.474Z,15.03
2022-10-13T07:42:44.984Z,15.15
2022-10-13T07:45:18.279Z,15.25
2022-10-13T07:47:51.013Z,15.15
2022-10-13T07:50:23.363Z,15.17
2022-10-13T07:52:55.281Z,15.32
2022-10-13T07:55:27.800Z,15.49
2022-10-13T07:58:02.428Z,15.72
2022-10-13T08:00:36.154Z,15.98
2022-10-13T08:03:08.410Z,16.24
2022-10-13T08:05:40.624Z,16.40
2022-10-13T08:08:12.676Z,16.49
2022-10-13T08:10:43.356Z,16.47
2022-10-13T08:13:15.989Z,16.44
2022-10-13T08:15:48.225Z,16.47
2022-10-13T08:18:20.191Z,16.47
2022-10-13T08:20:59.246Z,16.55
2022-10-13T08:23:36.943Z,16.64
2022-10-13T08:26:15.334Z,16.67
2022-10-13T08:29:02.822Z,16.77
2022-10-13T08:31:35.632Z,17.02
2022-10-13T08:34:08.074Z,17.17
2022-10-13T08:36:40.753Z,17.29
2022-10-13T08:39:14.081Z,17.41
2022-10-13T08:41:46.504Z,17.48
2022-10-13T08:45:05.932Z,17.50
2022-10-13T08:47:34.850Z,17.51
2022-10-13T08:50:15.052Z,17.46
2022-10-13T08:52:51.425Z,17.54
2022-10-13T08:55:36.107Z,17.59
2022-10-13T08:58:17.355Z,17.60
2022-10-13T09:00:49.465Z,17.66
2022-10-13T09:03:28.276Z,17.65
2022-10-13T09:06:12.561Z,17.62
2022-10-13T09:08:50.027Z,17.69
2022-10-13T09:11:22.305Z,17.72
2022-10-13T09:13:59.811Z,17.70
2022-10-13T09:16:37.579Z,17.61
2022-10-13T09:19:23.935Z,17.49
2022-10-13T09:21:58.390Z,17.53
2022-10-13T09:24:30.421Z,17.66
2022-10-13T09:27:16.322Z,17.75
2022-10-13T09:29:48.288Z,17.87
2022-10-13T09:32:23.923Z,17.98
2022-10-13T09:34:56.491Z,18.08
2022-10-13T09:37:28.892Z,18.10
2022-10-13T09:40:14.455Z,18.08
2022-10-13T09:42:54.384Z,18.12
2022-10-13T09:45:27.975Z,18.16
2022-10-13T09:48:03.929Z,18.16
2022-10-13T09:50:37.353Z,18.09
2022-10-13T09:53:23.905Z,18.20
2022-10-13T09:56:11.370Z,18.42
2022-10-13T09:58:49.929Z,18.69
2022-10-13T10:01:27.360Z,18.88
2022-10-13T10:04:00.928Z,18.99
2022-10-13T10:06:34.477Z,19.09
2022-10-13T10:09:22.065Z,19.12
2022-10-13T10:11:56.262Z,19.09
2022-10-13T10:14:30.255Z,18.91
2022-10-13T10:17:14.308Z,18.72
2022-10-13T10:20:02.231Z,18.48
2022-10-13T10:22:41.636Z,18.19
2022-10-13T10:25:28.088Z,17.94
2022-10-13T10:28:23.755Z,17.67
2022-10-13T10:31:02.967Z,17.41
2022-10-13T10:33:44.303Z,17.25
2022-10-13T10:36:21.176Z,17.12
2022-10-13T10:38:57.120Z,17.02
2022-10-13T10:41:46.062Z,16.91
2022-10-13T10:44:22.938Z,16.83
2022-10-13T10:47:02.277Z,16.80
2022-10-13T10:49:36.160Z,16.78
2022-10-13T10:52:12.792Z,16.81
2022-10-13T10:54:58.403Z,16.81
2022-10-13T10:57:42.105Z,16.82
2022-10-13T11:00:18.956Z,16.81
2022-10-13T11:03:01.130Z,16.76
2022-10-13T11:06:03.054Z,16.74
2022-10-13T11:08:44.048Z,16.71
2022-10-13T11:11:41.206Z,16.72
2022-10-13T11:14:29.763Z,16.74
2022-10-13T11:17:30.827Z,16.71
2022-10-13T11:20:25.129Z,16.69
2022-10-13T11:23:24.108Z,16.66
2022-10-13T11:26:31.262Z,16.69
2022-10-13T11:29:03.283Z,16.73
2022-10-13T11:31:51.238Z,16.73
2022-10-13T11:34:32.665Z,16.70
2022-10-13T11:37:17.359Z,16.71
2022-10-13T11:40:22.277Z,16.72
2022-10-13T11:43:08.563Z,16.70
2022-10-13T11:48:59.983Z,16.73
2022-10-13T11:51:41.456Z,16.74
2022-10-13T11:54:25.549Z,16.73
2022-10-13T11:56:58.750Z,16.75
2022-10-13T11:59:33.712Z,16.79
2022-10-13T12:02:18.914Z,16.82
2022-10-13T12:05:06.713Z,16.83
2022-10-13T12:07:44.185Z,16.83
2022-10-13T12:10:24.753Z,16.83
2022-10-13T12:12:57.565Z,16.82
2022-10-13T12:15:33.940Z,16.80
2022-10-13T12:18:23.817Z,16.77
2022-10-13T12:20:58.022Z,16.76
2022-10-13T12:23:30.845Z,16.77
2022-10-13T12:26:03.681Z,16.79
2022-10-13T12:28:50.090Z,16.82
2022-10-13T12:31:25.382Z,16.83
2022-10-13T12:33:59.204Z,16.86
2022-10-13T12:36:33.734Z,16.88
2022-10-13T12:39:11.711Z,16.90
2022-10-13T12:41:47.489Z,16.90
2022-10-13T12:44:23.717Z,16.90
2022-10-13T12:46:59.263Z,16.90
2022-10-13T12:49:33.215Z,16.92
2022-10-13T12:52:14.354Z,16.94
2022-10-13T12:54:52.132Z,16.96
2022-10-13T12:57:35.360Z,16.97
2022-10-13T13:00:22.144Z,17.01
2022-10-13T13:02:56.945Z,17.02
2022-10-13T13:05:37.694Z,17.03
2022-10-13T13:08:25.844Z,17.05
2022-10-13T13:10:59.440Z,17.09
2022-10-13T13:13:32.462Z,17.11
2022-10-13T13:16:18.668Z,17.14
2022-10-13T13:18:51.973Z,17.16
2022-10-13T13:21:24.567Z,17.16
2022-10-13T13:23:56.727Z,17.13
2022-10-13T13:26:28.663Z,17.10
2022-10-13T13:29:01.817Z,17.08
2022-10-13T13:31:34.066Z,17.05
2022-10-13T13:34:06.067Z,17.06
2022-10-13T13:36:38.089Z,17.06
2022-10-13T13:39:18.232Z,17.05
2022-10-13T13:41:50.209Z,17.06
2022-10-13T13:44:20.679Z,17.06
2022-10-13T13:46:53.863Z,17.04
2022-10-13T13:49:25.911Z,17.03
2022-10-13T13:51:58.025Z,17.02
2022-10-13T13:54:32.551Z,17.01
2022-10-13T13:57:05.933Z,17.00
2022-10-13T13:59:38.509Z,16.99
2022-10-13T14:02:15.953Z,16.99
2022-10-13T14:07:34.695Z,16.95
2022-10-13T14:10:08.741Z,16.95
2022-10-13T14:12:40.929Z,16.94
2022-10-13T14:15:13.648Z,16.92
2022-10-13T14:17:45.535Z,16.89
2022-10-13T14:20:16.038Z,16.87
2022-10-13T14:22:49.838Z,16.85
2022-10-13T14:25:22.949Z,16.84
2022-10-13T14:27:55.026Z,16.83
2022-10-13T14:30:27.056Z,16.82
2022-10-13T14:32:59.198Z,16.80
2022-10-13T14:35:31.666Z,16.78
2022-10-13T14:38:03.986Z,16.75
2022-10-13T14:40:36.959Z,16.72
2022-10-13T14:43:08.953Z,16.70
2022-10-13T14:45:41.011Z,16.68
2022-10-13T14:48:16.451Z,16.66
2022-10-13T14:50:48.900Z,16.65
2022-10-13T14:53:20.831Z,16.64
2022-10-13T14:55:51.411Z,16.63
2022-10-13T14:58:23.482Z,16.60
2022-10-13T15:00:55.827Z,16.57
2022-10-13T15:03:28.174Z,16.54
2022-10-13T15:06:01.360Z,16.51
2022-10-13T15:08:33.555Z,16.47
2022-10-13T15:11:06.409Z,16.44
2022-10-13T15:13:39.389Z,16.41
2022-10-13T15:16:18.361Z,16.38
2022-10-13T15:18:50.902Z,16.32
2022-10-13T15:21:23.923Z,16.27
2022-10-13T15:23:56.554Z,16.22
2022-10-13T15:26:28.487Z,16.19
2022-10-13T15:29:01.027Z,16.16
2022-10-13T15:31:33.101Z,16.11
2022-10-13T15:34:05.334Z,16.05
2022-10-13T15:36:38.063Z,15.97
2022-10-13T15:39:12.180Z,15.88
2022-10-13T15:41:44.380Z,15.79
2022-10-13T15:44:21.074Z,15.69
2022-10-13T15:47:07.596Z,15.59
2022-10-13T15:49:40.544Z,15.48
2022-10-13T15:52:12.995Z,15.35
2022-10-13T15:54:45.172Z,15.24
2022-10-13T15:57:15.502Z,15.12
2022-10-13T15:59:47.568Z,14.99
2022-10-13T16:02:18.402Z,14.86
2022-10-13T16:04:50.767Z,14.73
2022-10-13T16:07:21.233Z,14.64
2022-10-13T16:09:53.472Z,14.54
2022-10-13T16:12:25.759Z,14.45
2022-10-13T16:14:58.096Z,14.37
2022-10-13T16:17:30.130Z,14.26
2022-10-13T16:20:00.531Z,14.19
2022-10-13T16:22:33.150Z,14.09
2022-10-13T16:25:05.584Z,14.01
2022-10-13T16:27:41.782Z,13.94
2022-10-13T16:30:17.710Z,13.88
2022-10-13T16:32:50.430Z,13.80
2022-10-13T16:35:23.037Z,13.75
2022-10-13T16:37:55.654Z,13.69
2022-10-13T16:40:28.045Z,13.64
2022-10-13T16:43:00.660Z,13.58
2022-10-13T16:45:55.098Z,13.53
2022-10-13T16:48:23.739Z,13.45
2022-10-13T16:50:56.602Z,13.37
2022-10-13T16:53:29.522Z,13.29
2022-10-13T16:56:01.859Z,13.25
2022-10-13T16:58:34.164Z,13.22
2022-10-13T17:01:11.076Z,13.20
2022-10-13T17:03:44.490Z,13.19
2022-10-13T17:06:19.780Z,13.20
2022-10-13T17:08:56.537Z,13.21
2022-10-13T17:11:31.317Z,13.19
2022-10-13T17:14:05.590Z,13.19
2022-10-13T17:16:37.710Z,13.18
2022-10-13T17:19:10.241Z,13.17
2022-10-13T17:21:44.193Z,13.16
2022-10-13T17:24:17.299Z,13.15
2022-10-13T17:26:52.029Z,13.14
2022-10-13T17:29:24.627Z,13.13
2022-10-13T17:32:02.634Z,13.10
2022-10-13T17:34:36.677Z,13.08
2022-10-13T17:37:11.888Z,13.07
2022-10-13T17:39:44.149Z,13.04
2022-10-13T17:42:17.874Z,13.01
2022-10-13T17:44:52.530Z,12.97
2022-10-13T17:47:24.702Z,12.92
2022-10-13T17:49:56.833Z,12.89
2022-10-13T17:52:30.117Z,12.86
2022-10-13T17:55:02.615Z,12.84
2022-10-13T17:57:36.513Z,12.83
2022-10-13T18:00:13.500Z,12.81
2022-10-13T18:02:46.709Z,12.79
2022-10-13T18:05:19.965Z,12.74
2022-10-13T18:07:58.244Z,12.69
2022-10-13T18:10:40.796Z,12.64
2022-10-13T18:13:23.593Z,12.58
2022-10-13T18:15:56.339Z,12.54
2022-10-13T18:18:29.586Z,12.51
2022-10-13T18:21:04.850Z,12.48
2022-10-13T18:23:38.595Z,12.45
2022-10-13T18:26:13.981Z,12.42
2022-10-13T18:28:51.506Z,12.37
2022-10-13T18:31:27.588Z,12.26
2022-10-13T18:34:04.853Z,12.16
2022-10-13T18:36:38.931Z,12.07
2022-10-13T18:39:16.940Z,11.99
2022-10-13T18:41:53.320Z,11.91
2022-10-13T18:44:29.237Z,11.85
2022-10-13T18:47:03.167Z,11.78
2022-10-13T18:49:35.755Z,11.72
2022-10-13T18:52:08.523Z,11.68
2022-10-13T18:54:45.553Z,11.63
2022-10-13T18:57:17.606Z,11.58
2022-10-13T18:59:51.472Z,11.52
2022-10-13T19:02:24.491Z,11.49
2022-10-13T19:04:56.698Z,11.48
2022-10-13T19:07:35.657Z,11.46
2022-10-13T19:10:15.552Z,11.45
2022-10-13T19:12:49.729Z,11.44
2022-10-13T19:15:24.834Z,11.42
2022-10-13T19:17:58.747Z,11.41
2022-10-13T19:20:36.162Z,11.39
2022-10-13T19:23:18.163Z,11.37
2022-10-13T19:25:51.558Z,11.35
2022-10-13T19:28:32.073Z,11.32
2022-10-13T19:31:13.630Z,11.30
2022-10-13T19:33:49.881Z,11.24
2022-10-13T19:36:30.444Z,11.24
2022-10-13T19:39:11.718Z,11.23
2022-10-13T19:41:45.574Z,11.22
2022-10-13T19:44:21.838Z,11.19
2022-10-13T19:46:55.328Z,11.15
2022-10-13T19:49:27.714Z,11.14
2022-10-13T19:52:00.218Z,11.13
2022-10-13T19:54:33.928Z,11.12
2022-10-13T19:57:07.107Z,11.10
2022-10-13T19:59:41.968Z,11.08
2022-10-13T20:02:16.771Z,11.06
2022-10-13T20:04:49.297Z,11.02
2022-10-13T20:07:21.674Z,11.00
2022-10-13T20:09:53.892Z,10.98
2022-10-13T20:12:26.147Z,10.96
2022-10-13T20:14:56.502Z,10.94
2022-10-13T20:17:28.476Z,10.92
2022-10-13T20:20:00.521Z,10.90
2022-10-13T20:22:32.499Z,10.88
2022-10-13T20:25:06.205Z,10.85
2022-10-13T20:27:38.275Z,10.83
2022-10-13T20:30:17.197Z,10.78
2022-10-13T20:32:49.197Z,10.76
2022-10-13T20:35:22.276Z,10.75
2022-10-13T20:37:54.576Z,10.76
2022-10-13T20:40:25.167Z,10.79
2022-10-13T20:42:57.118Z,10.80
2022-10-13T20:45:29.076Z,10.83
2022-10-13T20:48:01.376Z,10.85
2022-10-13T20:50:33.903Z,10.88
2022-10-13T20:53:04.370Z,10.91
2022-10-13T20:55:41.620Z,10.93
2022-10-13T20:58:13.922Z,10.97
2022-10-13T21:00:47.029Z,11.00
2022-10-13T21:03:19.512Z,11.05
2022-10-13T21:05:55.432Z,11.10
2022-10-13T21:08:27.690Z,11.13
2022-10-13T21:10:58.151Z,11.15
2022-10-13T21:13:30.208Z,11.15
2022-10-13T21:16:08.622Z,11.15
2022-10-13T21:18:41.328Z,11.13
2022-10-13T21:21:17.463Z,11.11
2022-10-13T21:23:53.849Z,11.10
2022-10-13T21:26:28.007Z,11.04
2022-10-13T21:29:01.237Z,10.97
2022-10-13T21:31:34.294Z,10.94
2022-10-13T21:34:06.375Z,10.95
2022-10-13T21:36:42.505Z,10.96
2022-10-13T21:39:16.239Z,10.97
2022-10-13T21:41:48.511Z,10.95
2022-10-13T21:44:21.223Z,10.94
2022-10-13T21:46:51.893Z,10.92
2022-10-13T21:49:24.029Z,10.90
2022-10-13T21:51:54.526Z,10.90
2022-10-13T21:54:26.509Z,10.87
2022-10-13T21:56:58.817Z,10.83
2022-10-13T21:59:29.751Z,10.82
2022-10-13T22:02:01.812Z,10.80
2022-10-13T22:04:33.874Z,10.81
2022-10-13T22:07:06.209Z,10.78
2022-10-13T22:09:38.483Z,10.76
2022-10-13T22:12:11.288Z,10.74
2022-10-13T22:14:43.299Z,10.71
2022-10-13T22:17:15.462Z,10.69
2022-10-13T22:19:47.617Z,10.67
2022-10-13T22:22:19.507Z,10.67
2022-10-13T22:24:50.122Z,10.66
2022-10-13T22:27:22.191Z,10.62
2022-10-13T22:29:54.686Z,10.59
2022-10-13T22:32:26.639Z,10.54
2022-10-13T22:34:58.740Z,10.50
2022-10-13T22:37:30.886Z,10.46
2022-10-13T22:40:01.451Z,10.43
2022-10-13T22:42:33.909Z,10.36
2022-10-13T22:45:07.181Z,10.32
2022-10-13T22:47:39.286Z,10.25
2022-10-13T22:50:10.626Z,10.18
2022-10-13T22:52:42.979Z,10.14
2022-10-13T22:55:15.058Z,10.11
2022-10-13T22:57:47.024Z,10.03
2022-10-13T23:00:19.674Z,9.96
2022-10-13T23:02:54.038Z,9.91
2022-10-13T23:05:24.765Z,9.85
2022-10-13T23:07:56.919Z,9.80
2022-10-13T23:10:29.682Z,9.79
2022-10-13T23:13:02.116Z,9.78
2022-10-13T23:15:34.868Z,9.79
2022-10-13T23:18:07.436Z,9.77
2022-10-13T23:20:43.345Z,9.75
2022-10-13T23:23:17.513Z,9.75
2022-10-13T23:25:49.552Z,9.76
2022-10-13T23:28:21.440Z,9.76
2022-10-13T23:30:53.396Z,9.77
2022-10-13T23:33:26.356Z,9.76
2022-10-13T23:35:59.852Z,9.74
2022-10-13T23:38:34.193Z,9.73
2022-10-13T23:41:08.944Z,9.70
2022-10-13T23:43:42.255Z,9.68
2022-10-13T23:46:14.596Z,9.66
2022-10-13T23:48:45.233Z,9.65
2022-10-13T23:51:20.327Z,9.64
2022-10-13T23:53:52.799Z,9.64
2022-10-13T23:56:24.932Z,9.66
2022-10-13T23:58:57.157Z,9.68
